Flight Track Log - Related Links

Times and Time Zones

All times are in EDT time to prevent confusion due to time zone crossing. See the CSC8953 flight status page for this flight to view local times or setup timezone preferences in your user account.

Time Position Orientation Groundspeed Altitude Reporting Facility
EDT Latitude Longitude Course Direction KTS MPH feet Rate Location/Type
Wed 08:48:00 PM 30.6514 119.8303 309° West  Level Estimated
Wed 08:49:00 PM 30.7216 119.7295 309° West  Level Estimated
Wed 08:50:00 PM 30.7917 119.6286 309° West  Level Estimated
Wed 08:51:00 PM 30.8618 119.5276 309° West  Level Estimated
Wed 08:52:00 PM 30.9137 119.4526 309° West  Level Estimated
Wed 08:53:00 PM 30.9655 119.3775 309° West  Level Estimated
Wed 08:54:00 PM 31.0173 119.3024 309° West  Level Estimated
Wed 08:55:00 PM 31.0691 119.2271 309° West  Level Estimated
Wed 08:56:00 PM 31.1208 119.1518 309° West  Level Estimated
Wed 08:57:00 PM 31.1725 119.0764 309° West  Level Estimated
Wed 08:58:00 PM 31.2241 119.0010 309° West  Level Estimated
Wed 08:59:00 PM 31.2757 118.9254 309° West  Level Estimated
Wed 09:00:00 PM 31.3272 118.8498 309° West  Level Estimated
Wed 09:01:00 PM 31.3787 118.7740 309° West  Level Estimated
Wed 09:02:00 PM 31.4302 118.6982 309° West  Level Estimated
Wed 09:03:00 PM 31.4816 118.6224 308° West  Level Estimated
Wed 09:04:00 PM 31.5330 118.5464 308° West  Level Estimated
Wed 09:05:00 PM 31.5843 118.4703 308° West  Level Estimated
Wed 09:06:00 PM 31.6355 118.3942 308° West  Level Estimated
Wed 09:07:00 PM 31.6868 118.3179 308° West  Level Estimated
Wed 09:08:00 PM 31.7379 118.2417 308° West  Level Estimated
Wed 09:09:00 PM 31.7891 118.1653 308° West  Level Estimated
Wed 09:10:00 PM 31.8402 118.0888 308° West  Level Estimated
Wed 09:11:00 PM 31.8912 118.0122 308° West  Level Estimated
Wed 09:12:00 PM 31.9422 117.9356 308° West  Level Estimated
Wed 09:13:00 PM 31.9932 117.8588 308° West  Level Estimated
Wed 09:14:00 PM 32.0441 117.7820 308° West  Level Estimated
Wed 09:15:00 PM 32.0949 117.7051 308° West  Level Estimated
Wed 09:16:00 PM 32.1457 117.6281 308° West  Level Estimated
Wed 09:17:00 PM 32.1965 117.5511 308° West  Level Estimated
Wed 09:18:00 PM 32.2472 117.4739 308° West  Level Estimated
Wed 09:19:00 PM 32.2979 117.3967 308° West  Level Estimated
Wed 09:20:00 PM 32.3485 117.3193 308° West  Level Estimated
Wed 09:21:00 PM 32.3991 117.2419 308° West  Level Estimated
Wed 09:22:00 PM 32.4496 117.1644 308° West  Level Estimated
Wed 09:23:00 PM 32.5001 117.0868 308° West  Level Estimated
Wed 09:24:00 PM 32.5505 117.0091 308° West  Level Estimated
Wed 09:25:00 PM 32.6009 116.9314 308° West  Level Estimated
Wed 09:26:00 PM 32.6513 116.8535 308° West  Level Estimated
Wed 09:27:00 PM 32.7015 116.7756 307° West  Level Estimated
Wed 09:28:00 PM 32.7518 116.6975 307° West  Level Estimated
Wed 09:29:00 PM 32.8020 116.6194 307° West  Level Estimated
Wed 09:30:00 PM 32.8521 116.5412 307° West  Level Estimated
Wed 09:31:00 PM 32.9022 116.4629 307° West  Level Estimated
Wed 09:32:00 PM 32.9523 116.3845 307° West  Level Estimated
Wed 09:33:00 PM 33.0023 116.3061 307° West  Level Estimated
Wed 09:34:00 PM 33.0522 116.2275 307° West  Level Estimated
Wed 09:35:00 PM 33.1021 116.1488 307° West  Level Estimated
Wed 09:36:00 PM 33.1520 116.0701 307° West  Level Estimated
Wed 09:37:00 PM 33.2018 115.9913 307° West  Level Estimated
Wed 09:38:00 PM 33.2515 115.9124 307° West  Level Estimated
Wed 09:39:00 PM 33.3012 115.8334 307° West  Level Estimated
Wed 09:40:00 PM 33.3509 115.7542 307° West  Level Estimated
Wed 09:41:00 PM 33.4005 115.6751 307° West  Level Estimated
Wed 09:42:00 PM 33.4500 115.5958 307° West  Level Estimated
Wed 09:43:00 PM 33.4995 115.5164 307° West  Level Estimated
Wed 09:44:00 PM 33.5490 115.4370 307° West  Level Estimated
Wed 09:45:00 PM 33.5984 115.3574 307° West  Level Estimated
Wed 09:46:00 PM 33.6477 115.2778 307° West  Level Estimated
Wed 09:47:00 PM 33.6970 115.1980 307° West  Level Estimated
Wed 09:48:00 PM 33.7463 115.1182 307° West  Level Estimated
Wed 09:49:00 PM 33.7955 115.0383 307° West  Level Estimated
Wed 09:50:00 PM 33.8446 114.9583 306° West  Level Estimated
Wed 09:51:00 PM 33.8937 114.8782 306° West  Level Estimated
Wed 09:52:00 PM 33.9427 114.7980 306° West  Level Estimated
Wed 09:53:00 PM 33.9917 114.7177 306° West  Level Estimated
Wed 09:54:00 PM 34.0407 114.6373 306° West  Level Estimated
Wed 09:55:00 PM 34.0895 114.5568 306° West  Level Estimated
Wed 09:56:00 PM 34.1384 114.4763 306° West  Level Estimated
Wed 09:57:00 PM 34.1871 114.3956 306° West  Level Estimated
Wed 09:58:00 PM 34.2359 114.3149 306° West  Level Estimated
Wed 09:59:00 PM 34.2845 114.2340 306° West  Level Estimated
Wed 10:00:00 PM 34.3332 114.1531 306° West  Level Estimated
Wed 10:01:00 PM 34.3817 114.0721 306° West  Level Estimated
Wed 10:02:00 PM 34.4302 113.9909 306° West  Level Estimated
Wed 10:03:00 PM 34.4787 113.9097 306° West  Level Estimated
Wed 10:04:00 PM 34.5197 113.8409 306° West  Level Estimated
Wed 10:05:00 PM 34.5197 113.8409 North  Level Estimated
Wed 10:06:00 PM 34.5197 113.8409 North  Level Estimated
Wed 10:07:00 PM 34.5197 113.8409 North  Level Estimated
Wed 10:08:00 PM 34.5197 113.8409 North  Level Estimated
Wed 10:09:00 PM 34.5197 113.8409 North  Level Estimated
Wed 10:10:00 PM 34.5197 113.8409 North  Level Estimated
Wed 10:11:00 PM 34.5197 113.8409 North  Level Estimated
Wed 10:12:00 PM 34.5197 113.8409 North  Level Estimated
Wed 10:13:00 PM 34.5197 113.8409 North  Level Estimated
Wed 10:14:00 PM 34.5197 113.8409 North  Level Estimated
Wed 10:15:00 PM 34.5197 113.8409 North  Level Estimated
Wed 10:16:00 PM 34.5197 113.8409 North  Level Estimated
Wed 10:17:00 PM 34.5197 113.8409 North  Level Estimated
Wed 10:18:00 PM 34.5197 113.8409 North  Level Estimated
Wed 10:19:00 PM 34.5197 113.8409 North  Level Estimated
Wed 10:20:00 PM 34.5197 113.8409 North  Level Estimated
Wed 10:21:00 PM 34.5197 113.8409 North  Level Estimated

Login

Don't have an account? Register now (free) for customized features, flight alerts, and more!